createdAt,value
2018-09-20T00:00:20.906Z,18.90
2018-09-20T00:02:23.912Z,18.90
2018-09-20T00:04:26.885Z,18.90
2018-09-20T00:06:30.161Z,18.80
2018-09-20T00:08:33.168Z,18.90
2018-09-20T00:10:36.187Z,18.80
2018-09-20T00:12:39.395Z,18.80
2018-09-20T00:14:44.149Z,18.80
2018-09-20T00:16:47.130Z,18.90
2018-09-20T00:18:50.478Z,18.80
2018-09-20T00:20:53.443Z,18.80
2018-09-20T00:22:56.444Z,18.80
2018-09-20T00:24:59.614Z,18.80
2018-09-20T00:27:02.883Z,18.80
2018-09-20T00:29:05.975Z,18.80
2018-09-20T00:31:09.281Z,18.90
2018-09-20T00:33:13.233Z,18.90
2018-09-20T00:35:16.424Z,18.80
2018-09-20T00:37:19.667Z,18.80
2018-09-20T00:39:23.355Z,18.70
2018-09-20T00:41:26.316Z,18.70
2018-09-20T00:43:29.498Z,18.70
2018-09-20T00:45:32.472Z,18.70
2018-09-20T00:47:35.578Z,18.70
2018-09-20T00:49:38.813Z,18.60
2018-09-20T00:51:43.484Z,18.60
2018-09-20T00:53:46.487Z,18.60
2018-09-20T00:55:49.993Z,18.50
2018-09-20T00:57:52.955Z,18.50
2018-09-20T00:59:56.197Z,18.50
2018-09-20T01:01:59.612Z,18.50
2018-09-20T01:04:02.640Z,18.60
2018-09-20T01:06:05.911Z,18.50
2018-09-20T01:08:08.908Z,18.50
2018-09-20T01:10:12.720Z,18.50
2018-09-20T01:12:15.974Z,18.40
2018-09-20T01:14:19.056Z,18.40
2018-09-20T01:16:22.065Z,18.40
2018-09-20T01:18:25.246Z,18.40
2018-09-20T01:20:28.252Z,18.40
2018-09-20T01:22:31.230Z,18.40
2018-09-20T01:24:34.525Z,18.40
2018-09-20T01:26:37.552Z,18.40
2018-09-20T01:28:40.550Z,18.40
2018-09-20T01:30:45.320Z,18.30
2018-09-20T01:32:48.385Z,18.30
2018-09-20T01:34:51.418Z,18.30
2018-09-20T01:36:54.672Z,18.30
2018-09-20T01:38:57.682Z,18.30
2018-09-20T01:41:00.968Z,18.20
2018-09-20T01:43:04.280Z,18.20
2018-09-20T01:45:07.486Z,18.10
2018-09-20T01:47:10.567Z,18.10
2018-09-20T01:49:15.780Z,18.10
2018-09-20T01:51:18.992Z,18.10
2018-09-20T01:53:22.086Z,18.00
2018-09-20T01:55:25.354Z,18.00
2018-09-20T01:57:28.435Z,17.90
2018-09-20T01:59:31.788Z,17.90
2018-09-20T02:01:34.895Z,17.80
2018-09-20T02:03:37.989Z,17.80
2018-09-20T02:05:43.076Z,17.70
2018-09-20T02:07:46.166Z,17.70
2018-09-20T02:09:49.348Z,17.60
2018-09-20T02:11:52.711Z,17.60
2018-09-20T02:13:55.805Z,17.50
2018-09-20T02:15:58.854Z,17.60
2018-09-20T02:18:02.199Z,17.60
2018-09-20T02:20:05.337Z,17.60
2018-09-20T02:22:08.385Z,17.50
2018-09-20T02:24:13.524Z,17.50
2018-09-20T02:26:16.628Z,17.50
2018-09-20T02:28:19.664Z,17.50
2018-09-20T02:30:22.961Z,17.40
2018-09-20T02:32:26.032Z,17.30
2018-09-20T02:34:29.095Z,17.30
2018-09-20T02:36:33.018Z,17.40
2018-09-20T02:38:36.106Z,17.40
2018-09-20T02:40:39.192Z,17.40
2018-09-20T02:42:44.073Z,17.30
2018-09-20T02:44:47.215Z,17.30
2018-09-20T02:46:50.243Z,17.20
2018-09-20T02:48:53.518Z,17.20
2018-09-20T02:50:56.612Z,17.10
2018-09-20T02:52:59.661Z,17.10
2018-09-20T02:55:03.003Z,17.10
2018-09-20T02:57:06.087Z,17.10
2018-09-20T02:59:09.335Z,17.00
2018-09-20T03:01:14.398Z,17.00
2018-09-20T03:03:17.491Z,16.90
2018-09-20T03:05:20.548Z,16.90
2018-09-20T03:07:23.812Z,16.90
2018-09-20T03:09:26.868Z,16.90
2018-09-20T03:11:29.954Z,16.90
2018-09-20T03:13:33.383Z,16.80
2018-09-20T03:15:36.472Z,16.80
2018-09-20T03:17:39.534Z,16.70
2018-09-20T03:19:44.046Z,16.80
2018-09-20T03:21:47.134Z,16.70
2018-09-20T03:23:50.217Z,16.70
2018-09-20T03:25:53.549Z,16.70
2018-09-20T03:27:56.889Z,16.70
2018-09-20T03:30:00.035Z,16.70
2018-09-20T03:32:03.109Z,16.70
2018-09-20T03:34:06.515Z,16.60
2018-09-20T03:36:09.605Z,16.50
2018-09-20T03:38:13.490Z,16.50
2018-09-20T03:40:16.683Z,16.40
2018-09-20T03:42:19.644Z,16.30
2018-09-20T03:44:22.597Z,16.30
2018-09-20T03:46:25.823Z,16.30
2018-09-20T03:48:28.866Z,16.20
2018-09-20T03:50:31.855Z,16.20
2018-09-20T03:52:35.256Z,16.20
2018-09-20T03:54:38.228Z,16.20
2018-09-20T03:56:42.205Z,16.20
2018-09-20T03:58:45.393Z,16.20
2018-09-20T04:00:48.526Z,16.20
2018-09-20T04:02:51.526Z,16.20
2018-09-20T04:04:54.830Z,16.10
2018-09-20T04:06:57.806Z,16.00
2018-09-20T04:09:00.778Z,16.00
2018-09-20T04:11:04.117Z,15.90
2018-09-20T04:13:07.101Z,15.80
2018-09-20T04:15:13.017Z,15.70
2018-09-20T04:17:16.210Z,15.70
2018-09-20T04:19:19.212Z,15.70
2018-09-20T04:21:28.845Z,15.70
2018-09-20T04:23:32.134Z,15.60
2018-09-20T04:25:35.109Z,15.60
2018-09-20T04:27:38.089Z,15.70
2018-09-20T04:29:42.983Z,15.60
2018-09-20T04:31:45.976Z,15.60
2018-09-20T04:33:49.103Z,15.60
2018-09-20T04:35:52.426Z,15.50
2018-09-20T04:37:55.385Z,15.50
2018-09-20T04:39:58.408Z,15.50
2018-09-20T04:42:01.680Z,15.50
2018-09-20T04:44:04.697Z,15.40
2018-09-20T04:46:07.687Z,15.40
2018-09-20T04:48:10.904Z,15.40
2018-09-20T04:50:18.087Z,15.40
2018-09-20T04:52:23.223Z,15.40
2018-09-20T04:54:26.510Z,15.50
2018-09-20T04:56:29.622Z,15.40
2018-09-20T04:58:32.640Z,15.40
2018-09-20T05:00:35.829Z,15.40
2018-09-20T05:02:38.832Z,15.40
2018-09-20T05:04:43.451Z,15.40
2018-09-20T05:06:46.694Z,15.40
2018-09-20T05:08:49.706Z,15.40
2018-09-20T05:10:52.658Z,15.40
2018-09-20T05:12:55.915Z,15.40
2018-09-20T05:14:58.997Z,15.40
2018-09-20T05:17:03.189Z,15.40
2018-09-20T05:19:06.444Z,15.50
2018-09-20T05:21:09.463Z,15.40
2018-09-20T05:23:13.775Z,15.60
2018-09-20T05:25:17.036Z,15.70
2018-09-20T05:27:19.995Z,15.70
2018-09-20T05:29:23.084Z,15.70
2018-09-20T05:31:26.364Z,15.70
2018-09-20T05:33:29.394Z,15.70
2018-09-20T05:35:36.500Z,15.60
2018-09-20T05:37:39.675Z,15.60
2018-09-20T05:39:44.404Z,15.60
2018-09-20T05:41:47.366Z,15.60
2018-09-20T05:43:50.647Z,15.60
2018-09-20T05:45:53.649Z,15.60
2018-09-20T05:47:56.628Z,15.60
2018-09-20T05:49:59.876Z,15.60
2018-09-20T05:52:02.875Z,15.50
2018-09-20T05:54:06.095Z,15.50
2018-09-20T05:56:09.309Z,15.60
2018-09-20T05:58:12.947Z,15.60
2018-09-20T06:00:15.951Z,15.60
2018-09-20T06:02:19.102Z,15.60
2018-09-20T06:04:22.101Z,15.60
2018-09-20T06:06:25.088Z,15.70
2018-09-20T06:08:28.336Z,15.70
2018-09-20T06:10:31.320Z,15.70
2018-09-20T06:12:34.311Z,15.80
2018-09-20T06:14:37.635Z,15.80
2018-09-20T06:16:40.874Z,15.90
2018-09-20T06:18:45.748Z,15.90
2018-09-20T06:20:48.787Z,15.90
2018-09-20T06:22:52.076Z,16.00
2018-09-20T06:24:55.053Z,16.00
2018-09-20T06:26:58.024Z,16.10
2018-09-20T06:29:01.305Z,16.20
2018-09-20T06:31:04.313Z,16.20
2018-09-20T06:33:07.342Z,16.30
2018-09-20T06:35:10.521Z,16.30
2018-09-20T06:37:15.728Z,16.40
2018-09-20T06:39:18.676Z,16.40
2018-09-20T06:41:21.654Z,16.50
2018-09-20T06:43:24.818Z,16.60
2018-09-20T06:45:27.803Z,16.70
2018-09-20T06:47:30.769Z,16.80
2018-09-20T06:49:33.997Z,16.90
2018-09-20T06:51:36.960Z,17.00
2018-09-20T06:53:39.918Z,17.00
2018-09-20T06:55:43.721Z,17.10
2018-09-20T06:57:46.658Z,17.20
2018-09-20T06:59:49.623Z,17.30
2018-09-20T07:01:54.183Z,17.40
2018-09-20T07:03:57.256Z,17.50
2018-09-20T07:06:00.321Z,17.60
2018-09-20T07:08:03.557Z,17.80
2018-09-20T07:10:06.756Z,18.00
2018-09-20T07:12:09.840Z,18.20
2018-09-20T07:14:15.004Z,18.40
2018-09-20T07:16:18.056Z,18.60
2018-09-20T07:18:21.144Z,18.70
2018-09-20T07:20:24.418Z,18.90
2018-09-20T07:22:27.492Z,19.10
2018-09-20T07:24:30.662Z,19.30
2018-09-20T07:26:34.268Z,19.40
2018-09-20T07:28:37.337Z,19.70
2018-09-20T07:30:40.464Z,19.90
2018-09-20T07:32:45.638Z,20.10
2018-09-20T07:34:48.884Z,20.30
2018-09-20T07:36:51.964Z,20.50
2018-09-20T07:38:55.202Z,20.70
2018-09-20T07:40:58.295Z,20.90
2018-09-20T07:43:01.623Z,21.10
2018-09-20T07:45:04.772Z,21.40
2018-09-20T07:47:07.908Z,21.60
2018-09-20T07:49:12.635Z,21.80
2018-09-20T07:51:15.793Z,22.10
2018-09-20T07:53:18.898Z,22.30
2018-09-20T07:55:22.177Z,22.50
2018-09-20T07:57:28.465Z,22.70
2018-09-20T07:59:31.546Z,22.90
2018-09-20T08:01:35.040Z,23.00
2018-09-20T08:04:19.516Z,23.10
2018-09-20T08:06:28.649Z,23.20
2018-09-20T08:08:31.975Z,23.30
2018-09-20T08:10:35.005Z,23.50
2018-09-20T08:12:37.977Z,23.70
2018-09-20T08:14:41.496Z,23.80
2018-09-20T08:16:44.457Z,23.90
2018-09-20T08:18:47.449Z,24.10
2018-09-20T08:20:50.738Z,24.10
2018-09-20T08:22:53.739Z,24.20
2018-09-20T08:24:56.733Z,24.30
2018-09-20T08:26:59.987Z,24.40
2018-09-20T08:29:02.991Z,24.60
2018-09-20T08:31:05.996Z,24.70
2018-09-20T08:33:09.244Z,24.70
2018-09-20T08:35:13.658Z,24.70
2018-09-20T08:37:16.728Z,24.80
2018-09-20T08:39:19.874Z,24.90
2018-09-20T08:41:26.025Z,24.90
2018-09-20T08:43:29.015Z,25.00
2018-09-20T08:45:48.976Z,25.00
2018-09-20T08:47:58.894Z,25.10
2018-09-20T08:50:02.076Z,25.40
2018-09-20T08:52:05.510Z,25.40
2018-09-20T08:54:08.605Z,25.50
2018-09-20T08:56:13.733Z,25.60
2018-09-20T08:58:17.005Z,25.70
2018-09-20T09:00:20.241Z,25.80
2018-09-20T09:02:23.309Z,25.80
2018-09-20T09:04:26.765Z,25.90
2018-09-20T09:06:29.760Z,25.90
2018-09-20T09:08:32.740Z,25.80
2018-09-20T09:10:36.002Z,25.70
2018-09-20T09:12:38.981Z,25.80
2018-09-20T09:14:43.322Z,25.90
2018-09-20T09:16:46.568Z,26.10
2018-09-20T09:18:49.543Z,26.10
2018-09-20T09:20:52.525Z,26.20
2018-09-20T09:22:55.691Z,26.10
2018-09-20T09:24:58.659Z,26.20
2018-09-20T09:27:01.629Z,26.30
2018-09-20T09:29:04.929Z,26.40
2018-09-20T09:31:07.931Z,26.40
2018-09-20T09:33:10.913Z,26.50
2018-09-20T09:35:15.692Z,26.60
2018-09-20T09:37:18.850Z,26.90
2018-09-20T09:39:21.812Z,26.90
2018-09-20T09:41:25.054Z,27.00
2018-09-20T09:43:28.058Z,27.20
2018-09-20T09:45:31.035Z,27.40
2018-09-20T09:47:34.257Z,27.40
2018-09-20T09:49:37.244Z,27.40
2018-09-20T09:51:40.198Z,27.40
2018-09-20T09:53:45.271Z,27.40
2018-09-20T09:55:48.320Z,27.50
2018-09-20T09:57:52.957Z,27.50
2018-09-20T09:59:56.330Z,27.60
2018-09-20T10:01:59.346Z,27.90
2018-09-20T10:04:02.442Z,28.10
2018-09-20T10:06:05.780Z,28.30
2018-09-20T10:08:08.849Z,28.40
2018-09-20T10:10:13.555Z,28.50
2018-09-20T10:12:16.851Z,28.50
2018-09-20T10:14:19.903Z,28.50
2018-09-20T10:16:23.083Z,28.40
2018-09-20T10:18:26.422Z,28.60
2018-09-20T10:20:29.488Z,28.60
2018-09-20T10:22:32.539Z,28.60
2018-09-20T10:24:35.930Z,28.60
2018-09-20T10:26:38.969Z,27.80
2018-09-20T10:28:43.473Z,27.80
2018-09-20T10:30:46.729Z,27.70
2018-09-20T10:32:50.037Z,27.60
2018-09-20T10:34:53.105Z,27.70
2018-09-20T10:36:56.440Z,28.10
2018-09-20T10:38:59.572Z,28.20
2018-09-20T10:41:02.623Z,28.30
2018-09-20T10:43:05.904Z,28.20
2018-09-20T10:45:09.419Z,28.40
2018-09-20T10:47:14.588Z,28.60
2018-09-20T10:49:17.954Z,28.70
2018-09-20T10:51:21.015Z,28.70
2018-09-20T10:53:24.119Z,28.50
2018-09-20T10:55:27.468Z,28.50
2018-09-20T10:57:30.512Z,28.60
2018-09-20T10:59:34.187Z,28.70
2018-09-20T11:01:37.542Z,28.70
2018-09-20T11:03:40.585Z,28.60
2018-09-20T11:05:45.265Z,28.60
2018-09-20T11:07:48.656Z,28.70
2018-09-20T11:09:51.705Z,28.80
2018-09-20T11:11:54.969Z,29.00
2018-09-20T11:13:58.037Z,28.90
2018-09-20T11:16:01.047Z,28.70
2018-09-20T11:18:04.372Z,28.80
2018-09-20T11:20:07.481Z,28.80
2018-09-20T11:22:10.555Z,28.80
2018-09-20T11:24:15.472Z,28.40
2018-09-20T11:26:18.572Z,28.50
2018-09-20T11:28:21.619Z,28.70
2018-09-20T11:30:24.893Z,28.90
2018-09-20T11:32:27.963Z,29.00
2018-09-20T11:34:31.055Z,28.90
2018-09-20T11:36:34.457Z,29.00
2018-09-20T11:38:37.512Z,29.20
2018-09-20T11:40:40.791Z,29.30
2018-09-20T11:42:45.588Z,29.00
2018-09-20T11:44:48.629Z,29.00
2018-09-20T11:46:51.646Z,29.20
2018-09-20T11:48:54.875Z,29.20
2018-09-20T11:50:57.958Z,29.20
2018-09-20T11:53:01.036Z,28.90
2018-09-20T11:55:04.479Z,28.80
2018-09-20T11:57:07.528Z,28.90
2018-09-20T11:59:10.600Z,28.90
2018-09-20T12:01:15.583Z,28.90
2018-09-20T12:03:18.693Z,28.90
2018-09-20T12:05:22.113Z,28.90
2018-09-20T12:07:25.435Z,29.00
2018-09-20T12:09:28.485Z,29.00
2018-09-20T12:11:31.594Z,29.20
2018-09-20T12:13:34.860Z,29.50
2018-09-20T12:15:37.943Z,29.70
2018-09-20T12:17:40.995Z,29.90
2018-09-20T12:19:44.297Z,30.10
2018-09-20T12:21:47.365Z,30.10
2018-09-20T12:23:50.455Z,30.10
2018-09-20T12:25:53.846Z,29.90
2018-09-20T12:27:56.888Z,29.60
2018-09-20T12:30:00.206Z,29.50
2018-09-20T12:32:03.515Z,29.80
2018-09-20T12:34:06.567Z,29.70
2018-09-20T12:36:09.629Z,29.90
2018-09-20T12:38:15.193Z,29.90
2018-09-20T12:40:18.259Z,30.00
2018-09-20T12:42:21.337Z,30.20
2018-09-20T12:44:24.612Z,30.10
2018-09-20T12:46:27.695Z,29.90
2018-09-20T12:48:30.724Z,30.10
2018-09-20T12:50:34.056Z,30.10
2018-09-20T12:52:37.096Z,30.10
2018-09-20T12:54:40.159Z,30.10
2018-09-20T12:56:43.836Z,30.10
2018-09-20T12:58:48.741Z,30.10
2018-09-20T13:00:51.795Z,29.90
2018-09-20T13:02:55.111Z,30.00
2018-09-20T13:04:58.182Z,30.10
2018-09-20T13:07:01.209Z,30.10
2018-09-20T13:09:07.168Z,30.30
2018-09-20T13:11:10.259Z,30.30
2018-09-20T13:13:14.947Z,30.20
2018-09-20T13:15:18.199Z,30.20
2018-09-20T13:17:21.286Z,30.60
2018-09-20T13:19:24.304Z,30.80
2018-09-20T13:21:27.577Z,30.80
2018-09-20T13:23:30.893Z,30.70
2018-09-20T13:25:33.911Z,30.80
2018-09-20T13:27:37.220Z,30.90
2018-09-20T13:29:40.183Z,30.80
2018-09-20T13:31:44.425Z,30.90
2018-09-20T13:33:47.715Z,31.10
2018-09-20T13:35:50.693Z,31.20
2018-09-20T13:37:53.668Z,31.40
2018-09-20T13:39:56.943Z,31.20
2018-09-20T13:41:59.941Z,31.10
2018-09-20T13:44:02.906Z,31.10
2018-09-20T13:46:06.352Z,31.10
2018-09-20T13:48:09.355Z,31.00
2018-09-20T13:50:13.932Z,30.70
2018-09-20T13:52:17.203Z,30.70
2018-09-20T13:54:20.185Z,30.80
2018-09-20T13:56:23.199Z,31.00
2018-09-20T13:58:26.347Z,31.00
2018-09-20T14:00:29.342Z,30.80
2018-09-20T14:02:32.353Z,30.80
2018-09-20T14:04:35.489Z,30.70
2018-09-20T14:06:38.505Z,30.80
2018-09-20T14:08:43.071Z,30.50
2018-09-20T14:10:46.201Z,30.40
2018-09-20T14:12:49.198Z,30.50
2018-09-20T14:14:52.577Z,30.60
2018-09-20T14:16:55.553Z,30.70
2018-09-20T14:18:58.545Z,30.70
2018-09-20T14:21:01.750Z,30.70
2018-09-20T14:23:04.781Z,30.80
2018-09-20T14:25:07.801Z,30.80
2018-09-20T14:27:10.839Z,30.80
2018-09-20T14:29:15.984Z,31.00
2018-09-20T14:31:19.025Z,31.20
2018-09-20T14:33:22.009Z,31.40
2018-09-20T14:35:25.018Z,31.20
2018-09-20T14:37:28.096Z,30.90
2018-09-20T14:39:31.154Z,30.60
2018-09-20T14:41:34.454Z,30.70
2018-09-20T14:43:37.527Z,30.60
2018-09-20T14:45:40.537Z,30.50
2018-09-20T14:47:45.297Z,30.50
2018-09-20T14:49:48.277Z,30.40
2018-09-20T14:51:51.386Z,30.40
2018-09-20T14:53:54.860Z,30.30
2018-09-20T14:55:57.889Z,30.50
2018-09-20T14:58:00.881Z,30.60
2018-09-20T15:00:03.957Z,30.50
2018-09-20T15:02:06.953Z,30.60
2018-09-20T15:04:10.149Z,30.90
2018-09-20T15:06:15.229Z,31.10
2018-09-20T15:08:18.321Z,31.30
2018-09-20T15:10:21.199Z,31.30
2018-09-20T15:12:24.182Z,31.40
2018-09-20T15:14:27.165Z,31.40
2018-09-20T15:16:30.157Z,31.50
2018-09-20T15:18:33.264Z,31.30
2018-09-20T15:20:36.244Z,31.10
2018-09-20T15:22:39.241Z,30.90
2018-09-20T15:24:44.417Z,31.00
2018-09-20T15:26:47.405Z,31.20
2018-09-20T15:28:50.438Z,31.40
2018-09-20T15:30:53.521Z,31.70
2018-09-20T15:32:56.540Z,31.70
2018-09-20T15:34:59.579Z,31.60
2018-09-20T15:37:02.735Z,31.40
2018-09-20T15:39:09.401Z,31.30
2018-09-20T15:41:14.057Z,31.30
2018-09-20T15:43:18.041Z,31.40
2018-09-20T15:45:21.408Z,31.50
2018-09-20T15:47:24.468Z,31.50
2018-09-20T15:49:27.479Z,31.50
2018-09-20T15:51:30.849Z,31.40
2018-09-20T15:53:33.893Z,31.60
2018-09-20T15:55:36.949Z,31.50
2018-09-20T15:57:40.486Z,31.50
2018-09-20T15:59:45.566Z,31.30
2018-09-20T16:01:49.274Z,31.10
2018-09-20T16:03:52.534Z,31.10
2018-09-20T16:05:55.571Z,31.00
2018-09-20T16:07:58.568Z,30.80
2018-09-20T16:10:01.621Z,30.30
2018-09-20T16:12:04.714Z,30.20
2018-09-20T16:14:08.457Z,30.10
2018-09-20T16:16:13.160Z,30.00
2018-09-20T16:18:16.177Z,30.00
2018-09-20T16:20:19.349Z,29.90
2018-09-20T16:22:22.450Z,29.70
2018-09-20T16:24:25.533Z,29.60
2018-09-20T16:26:28.722Z,29.50
2018-09-20T16:28:46.362Z,29.40
2018-09-20T16:32:13.294Z,29.20
2018-09-20T16:35:07.289Z,29.10
2018-09-20T16:38:56.143Z,28.90
2018-09-20T16:41:03.086Z,28.80
2018-09-20T16:43:06.177Z,28.70
2018-09-20T16:45:09.158Z,28.50
2018-09-20T16:47:13.495Z,28.40
2018-09-20T16:49:16.556Z,28.40
2018-09-20T16:51:19.581Z,28.30
2018-09-20T16:53:22.930Z,28.30
2018-09-20T16:55:25.841Z,28.30
2018-09-20T16:57:28.858Z,28.20
2018-09-20T16:59:31.886Z,28.10
2018-09-20T17:01:34.890Z,28.00
2018-09-20T17:03:37.923Z,28.00
2018-09-20T17:05:40.994Z,27.90
2018-09-20T17:07:45.549Z,27.80
2018-09-20T17:09:48.613Z,27.70
2018-09-20T17:11:51.869Z,27.50
2018-09-20T17:13:55.019Z,27.40
2018-09-20T17:15:58.066Z,27.20
2018-09-20T17:18:01.243Z,27.00
2018-09-20T17:20:04.312Z,26.90
2018-09-20T17:22:07.400Z,26.80
2018-09-20T17:24:10.558Z,26.70
2018-09-20T17:26:15.203Z,26.60
2018-09-20T17:28:19.325Z,26.50
2018-09-20T17:30:22.451Z,26.40
2018-09-20T17:32:25.513Z,26.30
2018-09-20T17:34:28.886Z,26.20
2018-09-20T17:36:32.251Z,26.00
2018-09-20T17:38:36.567Z,25.90
2018-09-20T17:40:42.845Z,25.80
2018-09-20T17:42:47.312Z,25.60
2018-09-20T17:44:50.575Z,25.50
2018-09-20T17:46:53.639Z,25.40
2018-09-20T17:48:56.730Z,25.30
2018-09-20T17:51:00.471Z,25.30
2018-09-20T17:53:04.018Z,25.20
2018-09-20T17:55:07.806Z,25.20
2018-09-20T17:57:13.043Z,25.00
2018-09-20T17:59:16.051Z,25.00
2018-09-20T18:01:19.089Z,24.90
2018-09-20T18:03:22.093Z,24.80
2018-09-20T18:05:26.271Z,24.70
2018-09-20T18:07:29.277Z,24.60
2018-09-20T18:09:32.278Z,24.50
2018-09-20T18:11:35.351Z,24.50
2018-09-20T18:13:38.371Z,24.30
2018-09-20T18:15:43.425Z,24.20
2018-09-20T18:17:46.521Z,24.10
2018-09-20T18:19:52.859Z,24.00
2018-09-20T18:21:55.985Z,24.00
2018-09-20T18:23:59.003Z,23.90
2018-09-20T18:26:02.083Z,23.90
2018-09-20T18:28:05.172Z,23.80
2018-09-20T18:30:08.426Z,23.80
2018-09-20T18:32:12.809Z,23.70
2018-09-20T18:34:15.894Z,23.60
2018-09-20T18:36:19.018Z,23.50
2018-09-20T18:38:22.072Z,23.40
2018-09-20T18:40:29.159Z,23.30
2018-09-20T18:42:32.155Z,23.30
2018-09-20T18:44:35.225Z,23.20
2018-09-20T18:46:38.730Z,23.10
2018-09-20T18:48:43.721Z,23.00
2018-09-20T18:50:46.685Z,22.80
2018-09-20T18:52:49.922Z,22.70
2018-09-20T18:54:52.932Z,22.80
2018-09-20T18:56:55.934Z,22.80
2018-09-20T18:59:00.559Z,22.70
2018-09-20T19:01:03.648Z,22.60
2018-09-20T19:03:06.667Z,22.60
2018-09-20T19:05:09.714Z,22.40
2018-09-20T19:07:14.567Z,22.30
2018-09-20T19:09:17.601Z,22.30
2018-09-20T19:11:20.690Z,22.20
2018-09-20T19:13:23.698Z,22.10
2018-09-20T19:15:26.668Z,22.10
2018-09-20T19:17:29.711Z,22.00
2018-09-20T19:19:32.850Z,21.90
2018-09-20T19:21:35.858Z,21.80
2018-09-20T19:23:39.979Z,21.70
2018-09-20T19:25:44.267Z,21.70
2018-09-20T19:27:47.260Z,21.60
2018-09-20T19:29:50.442Z,21.60
2018-09-20T19:31:53.502Z,21.70
2018-09-20T19:33:56.586Z,21.60
2018-09-20T19:35:59.689Z,21.60
2018-09-20T19:38:02.781Z,21.50
2018-09-20T19:40:05.977Z,21.40
2018-09-20T19:42:09.063Z,21.30
2018-09-20T19:44:13.452Z,21.20
2018-09-20T19:46:16.490Z,21.10
2018-09-20T19:48:19.550Z,21.00
2018-09-20T19:50:22.553Z,20.90
2018-09-20T19:52:25.599Z,20.80
2018-09-20T19:54:28.622Z,20.70
2018-09-20T19:56:31.620Z,20.70
2018-09-20T19:58:34.640Z,20.60
2018-09-20T20:00:37.721Z,20.60
2018-09-20T20:02:40.693Z,20.50
2018-09-20T20:04:45.545Z,20.60
2018-09-20T20:06:48.576Z,20.50
2018-09-20T20:08:51.715Z,20.50
2018-09-20T20:10:54.797Z,20.50
2018-09-20T20:12:58.166Z,20.40
2018-09-20T20:15:01.285Z,20.40
2018-09-20T20:17:04.554Z,20.30
2018-09-20T20:19:07.926Z,20.20
2018-09-20T20:21:10.975Z,20.10
2018-09-20T20:23:15.129Z,20.10
2018-09-20T20:25:18.266Z,20.00
2018-09-20T20:27:21.313Z,19.90
2018-09-20T20:29:24.288Z,19.80
2018-09-20T20:31:27.297Z,19.80
2018-09-20T20:33:30.298Z,19.80
2018-09-20T20:35:33.329Z,19.80
2018-09-20T20:37:36.361Z,19.80
2018-09-20T20:39:39.488Z,19.80
2018-09-20T20:41:44.077Z,19.70
2018-09-20T20:43:47.085Z,19.70
2018-09-20T20:45:50.153Z,19.60
2018-09-20T20:47:53.179Z,19.50
2018-09-20T20:49:56.233Z,19.40
2018-09-20T20:51:59.228Z,19.30
2018-09-20T20:54:02.259Z,19.30
2018-09-20T20:56:05.317Z,19.30
2018-09-20T20:58:08.511Z,19.20
2018-09-20T21:00:13.653Z,19.20
2018-09-20T21:02:16.665Z,19.10
2018-09-20T21:04:19.694Z,19.00
2018-09-20T21:06:22.777Z,18.90
2018-09-20T21:08:25.804Z,18.80
2018-09-20T21:10:28.874Z,18.80
2018-09-20T21:12:31.909Z,18.70
2018-09-20T21:14:34.963Z,18.70
2018-09-20T21:16:38.001Z,18.60
2018-09-20T21:18:42.616Z,18.50
2018-09-20T21:20:45.689Z,18.50
2018-09-20T21:22:48.731Z,18.40
2018-09-20T21:24:51.761Z,18.40
2018-09-20T21:26:54.797Z,18.40
2018-09-20T21:28:57.821Z,18.40
2018-09-20T21:31:01.042Z,18.30
2018-09-20T21:33:04.154Z,18.30
2018-09-20T21:35:07.169Z,18.30
2018-09-20T21:37:10.247Z,18.30
2018-09-20T21:39:14.043Z,18.30
2018-09-20T21:41:17.280Z,18.30
2018-09-20T21:43:20.279Z,18.30
2018-09-20T21:45:23.277Z,18.30
2018-09-20T21:47:26.334Z,18.30
2018-09-20T21:49:29.357Z,18.40
2018-09-20T21:51:32.555Z,18.30
2018-09-20T21:53:35.698Z,18.20
2018-09-20T21:55:38.714Z,18.20
2018-09-20T21:57:42.055Z,18.10
2018-09-20T21:59:45.119Z,18.00
2018-09-20T22:01:53.856Z,18.00
2018-09-20T22:03:56.862Z,17.90
2018-09-20T22:05:59.944Z,17.80
2018-09-20T22:08:02.952Z,17.70
2018-09-20T22:10:06.181Z,17.70
2018-09-20T22:12:09.195Z,17.60
2018-09-20T22:14:13.639Z,17.60
2018-09-20T22:16:16.673Z,17.60
2018-09-20T22:18:19.706Z,17.60
2018-09-20T22:20:24.117Z,17.60
2018-09-20T22:22:27.104Z,17.50
2018-09-20T22:24:30.117Z,17.50
2018-09-20T22:26:33.192Z,17.50
2018-09-20T22:28:36.290Z,17.50
2018-09-20T22:30:39.302Z,17.50
2018-09-20T22:32:44.005Z,17.40
2018-09-20T22:34:47.059Z,17.50
2018-09-20T22:36:50.466Z,17.40
2018-09-20T22:38:53.478Z,17.40
2018-09-20T22:40:56.515Z,17.40
2018-09-20T22:42:59.537Z,17.40
2018-09-20T22:45:03.278Z,17.40
2018-09-20T22:47:06.335Z,17.40
2018-09-20T22:49:09.334Z,17.40
2018-09-20T22:51:14.170Z,17.40
2018-09-20T22:53:17.245Z,17.30
2018-09-20T22:55:20.282Z,17.30
2018-09-20T22:57:23.262Z,17.20
2018-09-20T22:59:26.282Z,17.20
2018-09-20T23:01:29.297Z,17.20
2018-09-20T23:03:32.286Z,17.20
2018-09-20T23:05:35.319Z,17.20
2018-09-20T23:07:38.389Z,17.20
2018-09-20T23:09:43.360Z,17.10
2018-09-20T23:11:46.469Z,17.10
2018-09-20T23:13:49.565Z,17.10
2018-09-20T23:15:52.567Z,17.10
2018-09-20T23:17:55.596Z,17.00
2018-09-20T23:19:58.610Z,17.00
2018-09-20T23:22:01.626Z,17.00
2018-09-20T23:24:04.665Z,17.00
2018-09-20T23:26:07.686Z,17.10
2018-09-20T23:28:10.680Z,17.10
2018-09-20T23:30:15.078Z,17.00
2018-09-20T23:32:18.457Z,17.00
2018-09-20T23:34:21.425Z,17.00
2018-09-20T23:36:24.443Z,16.90
2018-09-20T23:38:27.425Z,16.90
2018-09-20T23:40:30.374Z,16.90
2018-09-20T23:42:33.353Z,16.90
2018-09-20T23:44:36.427Z,16.90
2018-09-20T23:46:39.406Z,16.90
2018-09-20T23:48:43.977Z,16.90
2018-09-20T23:50:47.048Z,16.80
2018-09-20T23:52:50.097Z,16.80
2018-09-20T23:54:53.077Z,16.80
2018-09-20T23:56:56.134Z,16.70
2018-09-20T23:58:59.137Z,16.70
